createdAt,value
2018-12-11T00:00:54.189Z,3.17
2018-12-11T00:03:23.248Z,2.87
2018-12-11T00:05:52.362Z,3.43
2018-12-11T00:08:21.375Z,3.33
2018-12-11T00:10:50.405Z,4.07
2018-12-11T00:13:19.404Z,2.03
2018-12-11T00:15:48.425Z,3.03
2018-12-11T00:18:17.641Z,3.73
2018-12-11T00:20:46.645Z,3.07
2018-12-11T00:23:22.417Z,3.40
2018-12-11T00:25:51.506Z,2.93
2018-12-11T00:28:20.527Z,2.10
2018-12-11T00:30:49.501Z,2.40
2018-12-11T00:33:18.532Z,1.77
2018-12-11T00:35:47.551Z,3.90
2018-12-11T00:38:16.718Z,3.03
2018-12-11T00:40:45.928Z,2.47
2018-12-11T00:43:14.928Z,2.43
2018-12-11T00:45:43.985Z,2.50
2018-12-11T00:48:12.966Z,2.97
2018-12-11T00:50:42.010Z,2.47
2018-12-11T00:53:11.111Z,3.40
2018-12-11T00:55:40.122Z,2.50
2018-12-11T00:58:09.224Z,2.03
2018-12-11T01:00:38.397Z,4.30
2018-12-11T01:08:50.205Z,3.03
2018-12-11T01:11:26.189Z,2.43
2018-12-11T01:13:55.547Z,2.63
2018-12-11T01:16:24.864Z,2.70
2018-12-11T01:18:54.236Z,3.17
2018-12-11T01:21:23.670Z,2.80
2018-12-11T01:23:52.958Z,2.37
2018-12-11T01:26:22.256Z,3.30
2018-12-11T01:28:51.536Z,2.80
2018-12-11T01:31:20.936Z,3.80
2018-12-11T01:33:50.272Z,2.90
2018-12-11T01:36:19.585Z,2.70
2018-12-11T01:38:48.902Z,2.80
2018-12-11T01:41:18.174Z,2.80
2018-12-11T01:43:47.480Z,2.97
2018-12-11T01:46:16.776Z,2.00
2018-12-11T01:48:46.084Z,2.57
2018-12-11T01:51:15.404Z,2.80
2018-12-11T01:53:44.691Z,2.07
2018-12-11T01:56:14.291Z,1.93
2018-12-11T01:58:43.580Z,3.53
2018-12-11T02:01:12.879Z,3.00
2018-12-11T02:03:42.133Z,2.87
2018-12-11T02:06:11.480Z,2.43
2018-12-11T02:08:40.828Z,2.70
2018-12-11T02:11:10.140Z,1.90
2018-12-11T02:13:39.467Z,2.17
2018-12-11T02:16:08.704Z,2.30
2018-12-11T02:18:38.028Z,2.13
2018-12-11T02:21:07.297Z,2.07
2018-12-11T02:23:36.504Z,2.23
2018-12-11T02:26:05.770Z,2.57
2018-12-11T07:32:41.916Z,1.40
2018-12-11T07:35:11.045Z,1.10
2018-12-11T07:37:40.209Z,1.10
2018-12-11T07:40:09.244Z,0.83
2018-12-11T07:42:38.240Z,1.20
2018-12-11T07:45:07.405Z,1.00
2018-12-11T07:47:36.499Z,1.20
2018-12-11T07:50:06.344Z,1.07
2018-12-11T07:52:35.436Z,1.03
2018-12-11T07:55:04.842Z,1.10
2018-12-11T07:57:33.940Z,1.27
2018-12-11T08:00:03.218Z,0.80
2018-12-11T08:02:32.213Z,1.43
2018-12-11T08:05:01.329Z,0.97
2018-12-11T08:07:30.310Z,0.80
2018-12-11T08:09:59.404Z,0.83
2018-12-11T08:12:28.470Z,1.07
2018-12-11T08:14:57.607Z,1.10
2018-12-11T08:17:27.589Z,1.40
2018-12-11T08:19:56.576Z,1.50
2018-12-11T08:22:25.688Z,0.93
2018-12-11T08:24:54.687Z,1.30
2018-12-11T08:27:23.678Z,1.27
2018-12-11T08:29:52.694Z,0.77
2018-12-11T08:32:21.827Z,0.90
2018-12-11T08:34:50.892Z,0.97
2018-12-11T08:37:19.903Z,0.67
2018-12-11T08:39:48.896Z,1.07
2018-12-11T08:42:17.920Z,1.47
2018-12-11T08:44:51.175Z,1.30
2018-12-11T08:47:18.035Z,1.00
2018-12-11T08:49:53.396Z,0.73
2018-12-11T08:52:22.500Z,1.17
2018-12-11T08:54:51.596Z,0.83
2018-12-11T08:57:20.775Z,0.80
2018-12-11T08:59:49.939Z,0.90
2018-12-11T09:02:19.020Z,1.20
2018-12-11T09:04:48.035Z,1.33
2018-12-11T09:07:17.016Z,1.20
2018-12-11T09:09:46.314Z,1.20
2018-12-11T09:12:15.482Z,1.00
2018-12-11T09:14:44.513Z,0.83
2018-12-11T09:17:13.621Z,1.00
2018-12-11T09:19:42.632Z,1.30
2018-12-11T09:22:11.764Z,0.97
2018-12-11T09:24:40.776Z,1.00
2018-12-11T09:27:09.797Z,0.97
2018-12-11T09:29:38.916Z,0.93
2018-12-11T09:32:08.049Z,1.07
2018-12-11T09:34:37.098Z,1.07
2018-12-11T09:37:06.145Z,0.93
2018-12-11T09:39:35.252Z,1.10
2018-12-11T09:42:07.358Z,1.30
2018-12-11T09:44:35.526Z,1.20
2018-12-11T09:47:04.815Z,1.07
2018-12-11T09:49:33.824Z,0.97
2018-12-11T09:52:02.908Z,1.00
2018-12-11T09:54:31.890Z,1.10
2018-12-11T09:57:00.889Z,1.07
2018-12-11T09:59:29.918Z,0.80
2018-12-11T10:01:59.017Z,0.93
2018-12-11T10:04:28.121Z,0.90
2018-12-11T10:06:57.129Z,0.90
2018-12-11T10:09:26.111Z,1.17
2018-12-11T10:11:55.130Z,1.13
2018-12-11T10:14:24.120Z,1.20
2018-12-11T10:16:53.097Z,0.60
2018-12-11T10:19:22.188Z,0.80
2018-12-11T10:21:51.274Z,1.10
2018-12-11T10:24:22.470Z,0.93
2018-12-11T10:26:51.606Z,0.80
2018-12-11T10:29:20.699Z,1.10
2018-12-11T10:31:49.716Z,0.90
2018-12-11T10:34:18.921Z,1.07
2018-12-11T10:36:49.414Z,0.90
2018-12-11T10:39:18.621Z,1.03
2018-12-11T10:41:47.609Z,1.53
2018-12-11T10:44:16.678Z,1.00
2018-12-11T10:46:45.692Z,0.90
2018-12-11T10:49:14.755Z,1.20
2018-12-11T10:51:43.754Z,0.80
2018-12-11T10:54:12.900Z,0.93
2018-12-11T10:56:41.968Z,0.90
2018-12-11T10:59:10.979Z,0.87
2018-12-11T11:01:44.183Z,0.93
2018-12-11T11:04:20.546Z,1.10
2018-12-11T11:06:49.653Z,0.90
2018-12-11T11:09:18.876Z,1.00
2018-12-11T11:11:48.077Z,1.00
2018-12-11T11:14:17.126Z,1.00
2018-12-11T11:16:46.237Z,1.07
2018-12-11T11:19:15.240Z,1.00
2018-12-11T11:21:44.332Z,1.13
2018-12-11T11:24:13.360Z,1.00
2018-12-11T11:26:42.426Z,1.30
2018-12-11T11:29:11.483Z,1.00
2018-12-11T11:31:40.484Z,1.37
2018-12-11T11:34:09.546Z,0.87
2018-12-11T11:36:38.616Z,1.10
2018-12-11T11:39:09.000Z,1.47
2018-12-11T11:41:37.988Z,0.70
2018-12-11T11:44:06.988Z,0.83
2018-12-11T11:46:36.006Z,0.70
2018-12-11T11:49:05.150Z,0.90
2018-12-11T11:51:34.284Z,0.93
2018-12-11T11:54:03.348Z,1.00
2018-12-11T11:56:32.370Z,0.87
2018-12-11T11:59:01.475Z,0.70
2018-12-11T12:01:30.594Z,0.90
2018-12-11T12:03:59.618Z,0.93
2018-12-11T12:06:28.664Z,1.10
2018-12-11T12:08:59.427Z,1.20
2018-12-11T12:11:28.613Z,0.80
2018-12-11T12:13:59.107Z,0.87
2018-12-11T12:16:28.279Z,1.17
2018-12-11T12:18:57.339Z,0.97
2018-12-11T12:21:26.464Z,1.00
2018-12-11T12:23:55.463Z,0.93
2018-12-11T12:26:24.531Z,0.87
2018-12-11T12:28:53.612Z,1.20
2018-12-11T12:31:23.946Z,1.17
2018-12-11T12:33:52.961Z,0.93
2018-12-11T12:36:21.971Z,0.67
2018-12-11T12:38:51.040Z,1.27
2018-12-11T12:41:21.039Z,1.10
2018-12-11T12:43:50.039Z,1.03
2018-12-11T12:46:19.090Z,1.10
2018-12-11T12:48:48.146Z,1.87
2018-12-11T12:51:17.284Z,1.47
2018-12-11T12:53:46.311Z,1.00
2018-12-11T12:56:15.412Z,1.40
2018-12-11T12:58:44.423Z,1.13
2018-12-11T13:01:13.424Z,1.00
2018-12-11T13:03:42.693Z,1.50
2018-12-11T13:06:11.799Z,1.00
2018-12-11T13:08:40.856Z,1.10
2018-12-11T13:11:09.829Z,1.17
2018-12-11T13:13:38.981Z,1.17
2018-12-11T13:16:08.034Z,1.23
2018-12-11T13:18:37.105Z,1.07
2018-12-11T13:21:06.207Z,0.97
2018-12-11T13:23:35.227Z,1.20
2018-12-11T13:26:04.260Z,1.10
2018-12-11T13:28:33.335Z,1.17
2018-12-11T13:31:02.373Z,1.00
2018-12-11T13:33:31.387Z,0.97
2018-12-11T13:36:00.443Z,1.27
2018-12-11T13:38:29.553Z,1.00
2018-12-11T13:40:58.952Z,1.00
2018-12-11T13:43:27.941Z,1.07
2018-12-11T13:45:56.947Z,1.00
2018-12-11T13:48:26.107Z,0.80
2018-12-11T13:50:55.211Z,0.70
2018-12-11T13:53:24.296Z,1.10
2018-12-11T13:55:53.393Z,1.27
2018-12-11T13:58:22.420Z,1.50
2018-12-11T14:00:51.452Z,1.20
2018-12-11T14:03:20.498Z,1.40
2018-12-11T14:05:49.492Z,1.10
2018-12-11T14:08:18.556Z,1.60
2018-12-11T14:10:47.560Z,1.30
2018-12-11T14:13:16.597Z,0.80
2018-12-11T14:15:45.697Z,1.30
2018-12-11T14:18:14.716Z,1.10
2018-12-11T14:20:43.791Z,1.03
2018-12-11T14:23:16.667Z,1.20
2018-12-11T14:25:47.288Z,1.37
2018-12-11T14:28:17.763Z,1.13
2018-12-11T14:30:46.852Z,1.43
2018-12-11T14:33:15.868Z,1.10
2018-12-11T14:35:44.876Z,1.00
2018-12-11T14:38:13.857Z,1.43
2018-12-11T14:40:42.859Z,1.03
2018-12-11T14:43:11.941Z,1.20
2018-12-11T14:45:41.126Z,1.30
2018-12-11T14:48:10.092Z,1.10
2018-12-11T14:50:39.185Z,1.60
2018-12-11T14:53:08.209Z,1.60
2018-12-11T14:55:39.445Z,1.00
2018-12-11T14:58:09.222Z,1.40
2018-12-11T15:00:38.324Z,1.20
2018-12-11T15:03:07.486Z,1.27
2018-12-11T15:05:36.658Z,1.50
2018-12-11T15:08:05.688Z,1.00
2018-12-11T15:10:34.801Z,1.37
2018-12-11T15:13:03.886Z,1.47
2018-12-11T15:15:33.179Z,1.47
2018-12-11T15:18:02.939Z,1.30
2018-12-11T15:20:33.616Z,1.63
2018-12-11T15:23:02.669Z,1.73
2018-12-11T15:25:32.051Z,1.60
2018-12-11T15:28:01.213Z,1.37
2018-12-11T15:30:30.572Z,1.70
2018-12-11T15:33:03.935Z,1.63
2018-12-11T15:35:33.231Z,1.37
2018-12-11T15:38:02.423Z,1.80
2018-12-11T15:40:31.673Z,1.30
2018-12-11T15:43:01.002Z,1.30
2018-12-11T15:45:30.279Z,1.63
2018-12-11T15:47:59.650Z,1.27
2018-12-11T15:50:28.639Z,1.40
2018-12-11T15:52:58.274Z,1.13
2018-12-11T15:55:27.347Z,1.40
2018-12-11T15:57:56.348Z,1.20
2018-12-11T16:00:25.419Z,1.13
2018-12-11T16:02:54.487Z,1.23
2018-12-11T16:05:24.281Z,1.37
2018-12-11T16:07:53.293Z,1.17
2018-12-11T16:10:24.511Z,1.43
2018-12-11T16:12:53.598Z,1.17
2018-12-11T16:15:22.623Z,1.30
2018-12-11T16:17:51.646Z,1.23
2018-12-11T16:20:21.415Z,1.17
2018-12-11T16:22:50.437Z,1.33
2018-12-11T16:25:19.512Z,1.03
2018-12-11T16:27:48.666Z,1.40
2018-12-11T16:30:22.278Z,1.50
2018-12-11T16:32:51.631Z,1.10
2018-12-11T16:35:20.881Z,1.10
2018-12-11T16:37:50.388Z,1.40
2018-12-11T16:40:19.627Z,1.30
2018-12-11T16:42:48.632Z,1.20
2018-12-11T16:45:17.871Z,1.80
2018-12-11T16:47:46.897Z,1.90
2018-12-11T16:50:16.176Z,1.30
2018-12-11T16:52:45.290Z,1.50
2018-12-11T16:55:15.206Z,1.40
2018-12-11T16:57:44.269Z,1.17
2018-12-11T17:00:13.997Z,1.30
2018-12-11T17:02:43.117Z,1.70
2018-12-11T17:05:12.105Z,1.50
2018-12-11T17:07:41.189Z,1.50
2018-12-11T17:10:10.443Z,1.30
2018-12-11T17:12:39.761Z,1.10
2018-12-11T17:15:14.171Z,1.33
2018-12-11T17:17:43.405Z,1.20
2018-12-11T17:20:12.423Z,1.13
2018-12-11T17:22:41.429Z,1.10
2018-12-11T17:25:11.194Z,1.70
2018-12-11T17:27:40.215Z,1.53
2018-12-11T17:30:09.397Z,1.13
2018-12-11T17:32:38.444Z,1.00
2018-12-11T17:35:10.553Z,0.80
2018-12-11T17:37:39.727Z,1.20
2018-12-11T17:40:08.941Z,1.10
2018-12-11T17:42:37.995Z,1.33
2018-12-11T17:45:07.931Z,1.03
2018-12-11T17:47:37.801Z,1.10
2018-12-11T17:50:08.332Z,0.90
2018-12-11T17:52:37.381Z,1.27
2018-12-11T17:55:06.622Z,1.50
2018-12-11T17:57:35.708Z,3.30
2018-12-11T18:00:05.484Z,5.07
2018-12-11T18:02:37.070Z,2.57
2018-12-11T18:05:06.779Z,1.53
2018-12-11T18:07:35.838Z,1.10
2018-12-11T18:10:06.181Z,1.00
2018-12-11T18:12:35.446Z,1.13
2018-12-11T18:15:05.671Z,1.13
2018-12-11T18:17:34.759Z,0.90
2018-12-11T18:20:04.342Z,1.20
2018-12-11T18:22:33.527Z,1.10
2018-12-11T18:25:02.843Z,1.00
2018-12-11T18:27:32.007Z,0.90
2018-12-11T18:30:01.224Z,1.00
2018-12-11T18:32:30.374Z,1.30
2018-12-11T18:34:59.933Z,1.20
2018-12-11T18:37:29.011Z,1.57
2018-12-11T18:39:58.185Z,2.20
2018-12-11T18:42:27.329Z,1.73
2018-12-11T18:45:03.066Z,1.70
2018-12-11T18:47:27.946Z,1.30
2018-12-11T18:49:57.074Z,1.47
2018-12-11T18:52:26.196Z,1.30
2018-12-11T18:54:55.334Z,1.30
2018-12-11T18:57:24.945Z,1.30
2018-12-11T18:59:54.432Z,1.30
2018-12-11T19:02:23.797Z,1.10
2018-12-11T19:04:52.917Z,1.10
2018-12-11T19:07:22.101Z,1.53
2018-12-11T19:09:51.289Z,1.60
2018-12-11T19:12:20.408Z,1.70
2018-12-11T19:14:49.607Z,1.40
2018-12-11T19:17:18.916Z,1.13
2018-12-11T19:19:48.276Z,1.10
2018-12-11T19:22:18.503Z,1.57
2018-12-11T19:24:51.917Z,1.10
2018-12-11T19:27:21.353Z,1.30
2018-12-11T19:29:50.527Z,1.07
2018-12-11T19:32:19.839Z,1.23
2018-12-11T19:34:49.150Z,1.23
2018-12-11T19:37:18.631Z,1.47
2018-12-11T19:39:48.800Z,1.40
2018-12-11T19:42:18.057Z,1.60
2018-12-11T19:44:47.459Z,1.33
2018-12-11T19:47:16.877Z,0.97
2018-12-11T19:49:46.175Z,1.20
2018-12-11T19:52:15.541Z,1.27
2018-12-11T19:54:44.899Z,1.60
2018-12-11T19:57:14.230Z,1.47
2018-12-11T19:59:44.144Z,1.57
2018-12-11T20:02:13.555Z,1.50
2018-12-11T20:04:43.005Z,1.00
2018-12-11T20:07:12.492Z,1.00
2018-12-11T20:09:47.783Z,0.80
2018-12-11T20:12:17.254Z,1.03
2018-12-11T20:14:46.644Z,1.20
2018-12-11T20:17:17.322Z,1.27
2018-12-11T20:19:47.126Z,1.30
2018-12-11T20:22:17.643Z,1.37
2018-12-11T20:24:47.594Z,1.73
2018-12-11T20:27:18.037Z,1.43
2018-12-11T20:29:48.605Z,1.37
2018-12-11T20:32:18.164Z,1.43
2018-12-11T20:34:47.705Z,1.70
2018-12-11T20:37:17.195Z,1.80
2018-12-11T20:39:47.146Z,1.50
2018-12-11T20:42:16.621Z,1.37
2018-12-11T20:44:45.998Z,1.60
2018-12-11T20:47:15.413Z,1.60
2018-12-11T20:49:45.765Z,1.63
2018-12-11T20:52:15.111Z,1.47
2018-12-11T20:54:44.444Z,1.90
2018-12-11T20:57:14.020Z,2.30
2018-12-11T20:59:43.368Z,1.40
2018-12-11T21:02:13.292Z,1.30
2018-12-11T21:04:42.597Z,1.40
2018-12-11T21:07:12.269Z,1.10
2018-12-11T21:09:42.255Z,1.33
2018-12-11T21:12:11.486Z,1.13
2018-12-11T21:14:41.920Z,1.20
2018-12-11T21:17:11.245Z,1.60
2018-12-11T21:19:40.546Z,1.33
2018-12-11T21:22:09.823Z,1.23
2018-12-11T21:24:39.113Z,1.53
2018-12-11T21:27:08.470Z,1.40
2018-12-11T21:29:37.683Z,1.80
2018-12-11T21:32:06.951Z,1.40
2018-12-11T21:34:36.308Z,1.50
2018-12-11T21:37:05.549Z,1.17
2018-12-11T21:39:34.726Z,1.30
2018-12-11T21:42:03.887Z,1.37
2018-12-11T21:44:33.612Z,1.40
2018-12-11T21:47:02.844Z,1.10
2018-12-11T21:49:32.044Z,1.30
2018-12-11T21:52:01.167Z,2.17
2018-12-11T21:54:30.407Z,1.43
2018-12-11T21:56:59.622Z,1.20
2018-12-11T21:59:28.821Z,1.73
2018-12-11T22:01:57.945Z,1.40
2018-12-11T22:04:27.021Z,1.20
2018-12-11T22:06:56.181Z,1.40
2018-12-11T22:09:25.245Z,1.40
2018-12-11T22:11:54.301Z,1.30
2018-12-11T22:14:23.367Z,1.20
2018-12-11T22:16:52.530Z,1.50
2018-12-11T22:19:21.553Z,1.03
2018-12-11T22:21:50.582Z,1.00
2018-12-11T22:24:19.725Z,1.30
2018-12-11T22:26:48.726Z,1.73
2018-12-11T22:29:17.710Z,1.00
2018-12-11T22:31:46.820Z,1.30
2018-12-11T22:34:16.088Z,1.20
2018-12-11T22:36:45.113Z,1.10
2018-12-11T22:39:16.928Z,1.43
2018-12-11T22:41:46.384Z,1.20
2018-12-11T22:44:16.086Z,1.23
2018-12-11T22:46:45.502Z,1.53
2018-12-11T22:49:14.480Z,1.53
2018-12-11T22:51:43.706Z,0.83
2018-12-11T22:54:13.100Z,0.97
2018-12-11T22:56:43.012Z,1.17
2018-12-11T22:59:12.146Z,1.30
2018-12-11T23:01:41.362Z,1.00
2018-12-11T23:04:10.470Z,1.53
2018-12-11T23:06:39.579Z,1.10
2018-12-11T23:09:09.027Z,0.97
2018-12-11T23:11:38.039Z,0.77
2018-12-11T23:14:07.086Z,1.30
2018-12-11T23:16:36.198Z,0.90
2018-12-11T23:19:05.177Z,1.47
2018-12-11T23:21:34.182Z,0.93
2018-12-11T23:24:03.295Z,0.90
2018-12-11T23:26:32.508Z,1.00
2018-12-11T23:29:01.504Z,0.90
2018-12-11T23:31:30.474Z,1.23
2018-12-11T23:33:59.578Z,1.20
2018-12-11T23:36:28.562Z,0.97
2018-12-11T23:38:57.655Z,0.87
2018-12-11T23:41:26.713Z,0.90
2018-12-11T23:43:55.714Z,1.03
2018-12-11T23:46:24.697Z,1.17
2018-12-11T23:48:54.304Z,1.07
2018-12-11T23:51:23.346Z,1.07
2018-12-11T23:53:52.332Z,1.30
2018-12-11T23:56:21.694Z,1.20
2018-12-11T23:58:50.792Z,0.80
